sensor_id;sensor_type;location;lat;lon;timestamp;P1;durP1;ratioP1;P2;durP2;ratioP2
72813;SDS011;60945;48.516;-2.768;2023-04-19T00:01:52;42.72;;;24.75;;
72813;SDS011;60945;48.516;-2.768;2023-04-19T00:04:20;51.38;;;25.60;;
72813;SDS011;60945;48.516;-2.768;2023-04-19T00:06:46;45.22;;;24.17;;
72813;SDS011;60945;48.516;-2.768;2023-04-19T00:09:12;42.83;;;25.45;;
72813;SDS011;60945;48.516;-2.768;2023-04-19T00:11:37;47.53;;;25.05;;
72813;SDS011;60945;48.516;-2.768;2023-04-19T00:14:03;53.85;;;26.45;;
72813;SDS011;60945;48.516;-2.768;2023-04-19T00:16:31;45.47;;;26.02;;
72813;SDS011;60945;48.516;-2.768;2023-04-19T00:18:59;46.53;;;25.02;;
72813;SDS011;60945;48.516;-2.768;2023-04-19T00:21:25;50.08;;;26.58;;
72813;SDS011;60945;48.516;-2.768;2023-04-19T00:23:51;47.03;;;26.38;;
72813;SDS011;60945;48.516;-2.768;2023-04-19T00:26:18;45.53;;;26.23;;
72813;SDS011;60945;48.516;-2.768;2023-04-19T00:28:44;49.25;;;25.90;;
72813;SDS011;60945;48.516;-2.768;2023-04-19T00:31:12;45.00;;;25.77;;
72813;SDS011;60945;48.516;-2.768;2023-04-19T00:33:38;44.83;;;24.58;;
72813;SDS011;60945;48.516;-2.768;2023-04-19T00:36:04;50.28;;;26.80;;
72813;SDS011;60945;48.516;-2.768;2023-04-19T00:38:29;44.92;;;27.25;;
72813;SDS011;60945;48.516;-2.768;2023-04-19T00:40:55;50.17;;;27.25;;
72813;SDS011;60945;48.516;-2.768;2023-04-19T00:43:21;47.97;;;26.13;;
72813;SDS011;60945;48.516;-2.768;2023-04-19T00:45:47;51.42;;;26.00;;
72813;SDS011;60945;48.516;-2.768;2023-04-19T00:48:13;47.00;;;25.10;;
72813;SDS011;60945;48.516;-2.768;2023-04-19T00:50:40;49.65;;;27.20;;
72813;SDS011;60945;48.516;-2.768;2023-04-19T00:53:08;46.83;;;25.50;;
72813;SDS011;60945;48.516;-2.768;2023-04-19T00:55:35;49.05;;;26.15;;
72813;SDS011;60945;48.516;-2.768;2023-04-19T00:58:02;51.17;;;25.90;;
72813;SDS011;60945;48.516;-2.768;2023-04-19T01:00:32;46.15;;;26.35;;
72813;SDS011;60945;48.516;-2.768;2023-04-19T01:02:58;50.55;;;25.58;;
72813;SDS011;60945;48.516;-2.768;2023-04-19T01:05:24;48.25;;;25.77;;
72813;SDS011;60945;48.516;-2.768;2023-04-19T01:07:49;42.42;;;24.80;;
72813;SDS011;60945;48.516;-2.768;2023-04-19T01:10:15;45.33;;;25.48;;
72813;SDS011;60945;48.516;-2.768;2023-04-19T01:12:41;46.63;;;24.52;;
72813;SDS011;60945;48.516;-2.768;2023-04-19T01:15:07;46.03;;;25.75;;
72813;SDS011;60945;48.516;-2.768;2023-04-19T01:17:33;48.70;;;27.20;;
72813;SDS011;60945;48.516;-2.768;2023-04-19T01:19:59;44.78;;;26.55;;
72813;SDS011;60945;48.516;-2.768;2023-04-19T01:22:30;47.78;;;25.25;;
72813;SDS011;60945;48.516;-2.768;2023-04-19T01:24:56;48.72;;;25.85;;
72813;SDS011;60945;48.516;-2.768;2023-04-19T01:27:22;50.72;;;27.60;;
72813;SDS011;60945;48.516;-2.768;2023-04-19T01:29:48;45.10;;;24.90;;
72813;SDS011;60945;48.516;-2.768;2023-04-19T01:32:17;46.17;;;25.48;;
72813;SDS011;60945;48.516;-2.768;2023-04-19T01:34:43;42.28;;;25.80;;
72813;SDS011;60945;48.516;-2.768;2023-04-19T01:37:08;48.53;;;28.42;;
72813;SDS011;60945;48.516;-2.768;2023-04-19T01:39:34;45.05;;;25.75;;
72813;SDS011;60945;48.516;-2.768;2023-04-19T01:42:00;43.45;;;25.48;;
72813;SDS011;60945;48.516;-2.768;2023-04-19T01:44:26;48.20;;;25.48;;
72813;SDS011;60945;48.516;-2.768;2023-04-19T01:46:53;50.33;;;26.77;;
72813;SDS011;60945;48.516;-2.768;2023-04-19T01:49:19;46.30;;;25.27;;
72813;SDS011;60945;48.516;-2.768;2023-04-19T01:51:45;46.17;;;26.40;;
72813;SDS011;60945;48.516;-2.768;2023-04-19T01:54:10;46.63;;;25.05;;
72813;SDS011;60945;48.516;-2.768;2023-04-19T01:56:39;45.42;;;24.52;;
72813;SDS011;60945;48.516;-2.768;2023-04-19T01:59:04;46.28;;;24.35;;
72813;SDS011;60945;48.516;-2.768;2023-04-19T02:01:30;47.08;;;25.67;;
72813;SDS011;60945;48.516;-2.768;2023-04-19T02:03:56;45.25;;;24.38;;
72813;SDS011;60945;48.516;-2.768;2023-04-19T02:06:21;44.70;;;26.25;;
72813;SDS011;60945;48.516;-2.768;2023-04-19T02:08:47;42.92;;;25.08;;
72813;SDS011;60945;48.516;-2.768;2023-04-19T02:11:12;41.10;;;23.48;;
72813;SDS011;60945;48.516;-2.768;2023-04-19T02:13:39;47.72;;;25.55;;
72813;SDS011;60945;48.516;-2.768;2023-04-19T02:16:05;46.22;;;25.05;;
72813;SDS011;60945;48.516;-2.768;2023-04-19T02:18:31;44.78;;;24.73;;
72813;SDS011;60945;48.516;-2.768;2023-04-19T02:20:57;42.13;;;24.80;;
72813;SDS011;60945;48.516;-2.768;2023-04-19T02:23:23;47.05;;;24.23;;
72813;SDS011;60945;48.516;-2.768;2023-04-19T02:25:49;42.65;;;25.17;;
72813;SDS011;60945;48.516;-2.768;2023-04-19T02:28:15;47.33;;;25.10;;
72813;SDS011;60945;48.516;-2.768;2023-04-19T02:30:41;45.53;;;24.23;;
72813;SDS011;60945;48.516;-2.768;2023-04-19T02:33:06;43.15;;;24.90;;
72813;SDS011;60945;48.516;-2.768;2023-04-19T02:35:32;48.70;;;25.25;;
72813;SDS011;60945;48.516;-2.768;2023-04-19T02:38:01;46.88;;;24.58;;
72813;SDS011;60945;48.516;-2.768;2023-04-19T02:40:27;49.72;;;25.05;;
72813;SDS011;60945;48.516;-2.768;2023-04-19T02:42:53;41.05;;;25.02;;
72813;SDS011;60945;48.516;-2.768;2023-04-19T02:45:19;45.47;;;24.70;;
72813;SDS011;60945;48.516;-2.768;2023-04-19T02:47:44;41.90;;;24.15;;
72813;SDS011;60945;48.516;-2.768;2023-04-19T02:50:11;42.90;;;23.95;;
72813;SDS011;60945;48.516;-2.768;2023-04-19T02:52:37;42.80;;;24.70;;
72813;SDS011;60945;48.516;-2.768;2023-04-19T02:55:03;45.00;;;24.60;;
72813;SDS011;60945;48.516;-2.768;2023-04-19T02:57:30;39.45;;;23.60;;
72813;SDS011;60945;48.516;-2.768;2023-04-19T02:59:56;43.72;;;23.20;;
72813;SDS011;60945;48.516;-2.768;2023-04-19T03:02:21;43.40;;;23.98;;
72813;SDS011;60945;48.516;-2.768;2023-04-19T03:04:47;39.75;;;23.60;;
72813;SDS011;60945;48.516;-2.768;2023-04-19T03:07:13;42.15;;;22.17;;
72813;SDS011;60945;48.516;-2.768;2023-04-19T03:09:38;45.60;;;24.00;;
72813;SDS011;60945;48.516;-2.768;2023-04-19T03:12:05;41.92;;;23.33;;
72813;SDS011;60945;48.516;-2.768;2023-04-19T03:14:31;36.83;;;22.38;;
72813;SDS011;60945;48.516;-2.768;2023-04-19T03:17:00;43.40;;;24.27;;
72813;SDS011;60945;48.516;-2.768;2023-04-19T03:19:26;44.05;;;23.50;;
72813;SDS011;60945;48.516;-2.768;2023-04-19T03:21:51;42.85;;;25.00;;
72813;SDS011;60945;48.516;-2.768;2023-04-19T03:24:17;42.35;;;23.35;;
72813;SDS011;60945;48.516;-2.768;2023-04-19T03:26:44;38.58;;;23.77;;
72813;SDS011;60945;48.516;-2.768;2023-04-19T03:29:10;37.25;;;22.42;;
72813;SDS011;60945;48.516;-2.768;2023-04-19T03:31:37;41.22;;;23.67;;
72813;SDS011;60945;48.516;-2.768;2023-04-19T03:34:02;37.30;;;22.42;;
72813;SDS011;60945;48.516;-2.768;2023-04-19T03:36:28;37.30;;;21.88;;
72813;SDS011;60945;48.516;-2.768;2023-04-19T03:38:55;39.90;;;22.80;;
72813;SDS011;60945;48.516;-2.768;2023-04-19T03:41:24;37.97;;;22.85;;
72813;SDS011;60945;48.516;-2.768;2023-04-19T03:43:50;39.55;;;23.13;;
72813;SDS011;60945;48.516;-2.768;2023-04-19T03:46:16;35.95;;;22.80;;
72813;SDS011;60945;48.516;-2.768;2023-04-19T03:48:42;37.85;;;22.52;;
72813;SDS011;60945;48.516;-2.768;2023-04-19T03:51:08;40.55;;;22.90;;
72813;SDS011;60945;48.516;-2.768;2023-04-19T03:53:34;44.13;;;23.10;;
72813;SDS011;60945;48.516;-2.768;2023-04-19T03:56:00;38.30;;;22.95;;
72813;SDS011;60945;48.516;-2.768;2023-04-19T03:58:26;37.22;;;21.25;;
72813;SDS011;60945;48.516;-2.768;2023-04-19T04:00:51;38.00;;;23.20;;
72813;SDS011;60945;48.516;-2.768;2023-04-19T04:03:17;37.63;;;22.73;;
72813;SDS011;60945;48.516;-2.768;2023-04-19T04:05:43;38.03;;;23.25;;
72813;SDS011;60945;48.516;-2.768;2023-04-19T04:08:09;36.20;;;22.02;;
72813;SDS011;60945;48.516;-2.768;2023-04-19T04:10:35;43.15;;;22.05;;
72813;SDS011;60945;48.516;-2.768;2023-04-19T04:13:00;41.78;;;23.05;;
72813;SDS011;60945;48.516;-2.768;2023-04-19T04:15:26;40.45;;;23.55;;
72813;SDS011;60945;48.516;-2.768;2023-04-19T04:17:52;37.30;;;22.63;;
72813;SDS011;60945;48.516;-2.768;2023-04-19T04:20:17;40.80;;;22.65;;
72813;SDS011;60945;48.516;-2.768;2023-04-19T04:22:43;41.20;;;23.42;;
72813;SDS011;60945;48.516;-2.768;2023-04-19T04:25:12;38.80;;;22.45;;
72813;SDS011;60945;48.516;-2.768;2023-04-19T04:27:39;42.05;;;22.10;;
72813;SDS011;60945;48.516;-2.768;2023-04-19T04:30:11;44.70;;;22.57;;
72813;SDS011;60945;48.516;-2.768;2023-04-19T04:32:37;39.53;;;22.55;;
72813;SDS011;60945;48.516;-2.768;2023-04-19T04:35:05;39.65;;;22.52;;
72813;SDS011;60945;48.516;-2.768;2023-04-19T04:37:32;40.47;;;22.05;;
72813;SDS011;60945;48.516;-2.768;2023-04-19T04:40:01;39.45;;;22.77;;
72813;SDS011;60945;48.516;-2.768;2023-04-19T04:42:29;41.58;;;22.60;;
72813;SDS011;60945;48.516;-2.768;2023-04-19T04:44:55;42.78;;;23.38;;
72813;SDS011;60945;48.516;-2.768;2023-04-19T04:47:22;43.30;;;23.00;;
72813;SDS011;60945;48.516;-2.768;2023-04-19T04:49:48;41.13;;;24.42;;
72813;SDS011;60945;48.516;-2.768;2023-04-19T04:52:15;44.70;;;22.63;;
72813;SDS011;60945;48.516;-2.768;2023-04-19T04:54:42;39.92;;;22.85;;
72813;SDS011;60945;48.516;-2.768;2023-04-19T04:57:08;39.20;;;23.38;;
72813;SDS011;60945;48.516;-2.768;2023-04-19T04:59:36;37.83;;;22.38;;
72813;SDS011;60945;48.516;-2.768;2023-04-19T05:02:02;39.63;;;23.88;;
72813;SDS011;60945;48.516;-2.768;2023-04-19T05:04:27;44.35;;;24.05;;
72813;SDS011;60945;48.516;-2.768;2023-04-19T05:06:53;41.70;;;23.70;;
72813;SDS011;60945;48.516;-2.768;2023-04-19T05:09:19;43.40;;;24.20;;
72813;SDS011;60945;48.516;-2.768;2023-04-19T05:11:44;40.13;;;24.80;;
72813;SDS011;60945;48.516;-2.768;2023-04-19T05:14:10;42.65;;;23.58;;
72813;SDS011;60945;48.516;-2.768;2023-04-19T05:16:36;45.42;;;24.60;;
72813;SDS011;60945;48.516;-2.768;2023-04-19T05:19:02;43.13;;;23.85;;
72813;SDS011;60945;48.516;-2.768;2023-04-19T05:21:30;39.40;;;22.65;;
72813;SDS011;60945;48.516;-2.768;2023-04-19T05:23:58;41.33;;;23.50;;
72813;SDS011;60945;48.516;-2.768;2023-04-19T05:26:23;40.08;;;22.80;;
72813;SDS011;60945;48.516;-2.768;2023-04-19T05:28:49;38.33;;;23.25;;
72813;SDS011;60945;48.516;-2.768;2023-04-19T05:31:15;41.83;;;23.42;;
72813;SDS011;60945;48.516;-2.768;2023-04-19T05:33:41;38.70;;;22.30;;
72813;SDS011;60945;48.516;-2.768;2023-04-19T05:36:06;40.53;;;23.50;;
72813;SDS011;60945;48.516;-2.768;2023-04-19T05:38:32;39.22;;;23.98;;
72813;SDS011;60945;48.516;-2.768;2023-04-19T05:40:58;41.28;;;23.02;;
72813;SDS011;60945;48.516;-2.768;2023-04-19T05:43:24;44.40;;;24.92;;
72813;SDS011;60945;48.516;-2.768;2023-04-19T05:45:50;43.53;;;23.15;;
72813;SDS011;60945;48.516;-2.768;2023-04-19T05:48:15;40.65;;;23.98;;
72813;SDS011;60945;48.516;-2.768;2023-04-19T05:50:41;40.30;;;23.55;;
72813;SDS011;60945;48.516;-2.768;2023-04-19T05:53:06;42.13;;;23.05;;
72813;SDS011;60945;48.516;-2.768;2023-04-19T05:55:32;44.25;;;24.80;;
72813;SDS011;60945;48.516;-2.768;2023-04-19T05:57:58;38.28;;;22.85;;
72813;SDS011;60945;48.516;-2.768;2023-04-19T06:00:23;43.67;;;24.13;;
72813;SDS011;60945;48.516;-2.768;2023-04-19T06:02:49;40.33;;;24.27;;
72813;SDS011;60945;48.516;-2.768;2023-04-19T06:05:14;42.65;;;23.73;;
72813;SDS011;60945;48.516;-2.768;2023-04-19T06:07:40;37.38;;;21.90;;
72813;SDS011;60945;48.516;-2.768;2023-04-19T06:10:06;43.38;;;23.67;;
72813;SDS011;60945;48.516;-2.768;2023-04-19T06:12:32;41.58;;;22.25;;
72813;SDS011;60945;48.516;-2.768;2023-04-19T06:14:58;39.33;;;23.23;;
72813;SDS011;60945;48.516;-2.768;2023-04-19T06:17:23;37.10;;;23.23;;
72813;SDS011;60945;48.516;-2.768;2023-04-19T06:19:50;43.90;;;23.20;;
72813;SDS011;60945;48.516;-2.768;2023-04-19T06:22:16;38.85;;;24.23;;
72813;SDS011;60945;48.516;-2.768;2023-04-19T06:24:43;44.72;;;24.02;;
72813;SDS011;60945;48.516;-2.768;2023-04-19T06:27:10;39.50;;;22.45;;
72813;SDS011;60945;48.516;-2.768;2023-04-19T06:29:35;38.50;;;23.35;;
72813;SDS011;60945;48.516;-2.768;2023-04-19T06:32:01;39.67;;;23.65;;
72813;SDS011;60945;48.516;-2.768;2023-04-19T06:34:27;40.53;;;23.15;;
72813;SDS011;60945;48.516;-2.768;2023-04-19T06:36:53;47.20;;;23.88;;
72813;SDS011;60945;48.516;-2.768;2023-04-19T06:39:18;39.63;;;23.25;;
72813;SDS011;60945;48.516;-2.768;2023-04-19T06:41:44;43.85;;;24.13;;
72813;SDS011;60945;48.516;-2.768;2023-04-19T06:44:10;38.63;;;22.52;;
72813;SDS011;60945;48.516;-2.768;2023-04-19T06:46:37;40.22;;;23.73;;
72813;SDS011;60945;48.516;-2.768;2023-04-19T06:49:03;42.58;;;24.23;;
72813;SDS011;60945;48.516;-2.768;2023-04-19T06:51:29;38.78;;;23.05;;
72813;SDS011;60945;48.516;-2.768;2023-04-19T06:53:55;38.15;;;23.17;;
72813;SDS011;60945;48.516;-2.768;2023-04-19T06:59:06;36.33;;;21.20;;
72813;SDS011;60945;48.516;-2.768;2023-04-19T07:01:32;37.03;;;23.30;;
72813;SDS011;60945;48.516;-2.768;2023-04-19T07:03:57;36.17;;;22.75;;
72813;SDS011;60945;48.516;-2.768;2023-04-19T07:06:23;42.92;;;22.27;;
72813;SDS011;60945;48.516;-2.768;2023-04-19T07:08:48;42.03;;;21.98;;
72813;SDS011;60945;48.516;-2.768;2023-04-19T07:11:14;37.22;;;22.75;;
72813;SDS011;60945;48.516;-2.768;2023-04-19T07:13:40;37.72;;;21.45;;
72813;SDS011;60945;48.516;-2.768;2023-04-19T07:16:05;38.17;;;22.95;;
72813;SDS011;60945;48.516;-2.768;2023-04-19T07:18:32;38.17;;;22.52;;
72813;SDS011;60945;48.516;-2.768;2023-04-19T07:20:57;35.70;;;21.63;;
72813;SDS011;60945;48.516;-2.768;2023-04-19T07:23:23;34.05;;;20.77;;
72813;SDS011;60945;48.516;-2.768;2023-04-19T07:25:48;36.35;;;22.20;;
72813;SDS011;60945;48.516;-2.768;2023-04-19T07:28:14;33.92;;;21.27;;
72813;SDS011;60945;48.516;-2.768;2023-04-19T07:30:40;31.70;;;20.70;;
72813;SDS011;60945;48.516;-2.768;2023-04-19T07:33:06;33.63;;;21.27;;
72813;SDS011;60945;48.516;-2.768;2023-04-19T07:35:33;35.70;;;21.75;;
72813;SDS011;60945;48.516;-2.768;2023-04-19T07:37:59;33.47;;;20.88;;
72813;SDS011;60945;48.516;-2.768;2023-04-19T07:40:25;31.92;;;20.60;;
72813;SDS011;60945;48.516;-2.768;2023-04-19T07:42:53;30.52;;;22.27;;
72813;SDS011;60945;48.516;-2.768;2023-04-19T07:45:19;39.15;;;21.63;;
72813;SDS011;60945;48.516;-2.768;2023-04-19T07:47:45;33.05;;;21.33;;
72813;SDS011;60945;48.516;-2.768;2023-04-19T07:50:11;39.10;;;22.40;;
72813;SDS011;60945;48.516;-2.768;2023-04-19T07:52:36;34.90;;;22.33;;
72813;SDS011;60945;48.516;-2.768;2023-04-19T07:55:02;31.48;;;21.80;;
72813;SDS011;60945;48.516;-2.768;2023-04-19T07:57:28;30.45;;;21.30;;
72813;SDS011;60945;48.516;-2.768;2023-04-19T07:59:54;32.50;;;22.13;;
72813;SDS011;60945;48.516;-2.768;2023-04-19T08:02:22;32.05;;;21.33;;
72813;SDS011;60945;48.516;-2.768;2023-04-19T08:04:51;30.92;;;21.08;;
72813;SDS011;60945;48.516;-2.768;2023-04-19T08:07:16;30.60;;;21.13;;
72813;SDS011;60945;48.516;-2.768;2023-04-19T08:09:42;29.77;;;21.10;;
72813;SDS011;60945;48.516;-2.768;2023-04-19T08:12:07;29.90;;;21.17;;
72813;SDS011;60945;48.516;-2.768;2023-04-19T08:14:33;33.22;;;22.58;;
72813;SDS011;60945;48.516;-2.768;2023-04-19T08:17:03;31.60;;;21.77;;
72813;SDS011;60945;48.516;-2.768;2023-04-19T08:19:29;27.38;;;21.00;;
72813;SDS011;60945;48.516;-2.768;2023-04-19T08:21:54;29.30;;;22.08;;
72813;SDS011;60945;48.516;-2.768;2023-04-19T08:24:21;27.30;;;20.77;;
72813;SDS011;60945;48.516;-2.768;2023-04-19T08:26:47;27.30;;;22.02;;
72813;SDS011;60945;48.516;-2.768;2023-04-19T08:29:18;29.27;;;22.77;;
72813;SDS011;60945;48.516;-2.768;2023-04-19T08:31:45;29.48;;;24.83;;
72813;SDS011;60945;48.516;-2.768;2023-04-19T08:34:10;27.88;;;21.88;;
72813;SDS011;60945;48.516;-2.768;2023-04-19T08:36:36;27.55;;;22.17;;
72813;SDS011;60945;48.516;-2.768;2023-04-19T08:39:02;25.88;;;22.00;;
72813;SDS011;60945;48.516;-2.768;2023-04-19T08:41:29;28.50;;;23.48;;
72813;SDS011;60945;48.516;-2.768;2023-04-19T08:43:55;28.13;;;21.92;;
72813;SDS011;60945;48.516;-2.768;2023-04-19T08:46:22;28.30;;;22.42;;
72813;SDS011;60945;48.516;-2.768;2023-04-19T08:48:49;25.67;;;21.70;;
72813;SDS011;60945;48.516;-2.768;2023-04-19T08:51:15;25.50;;;22.52;;
72813;SDS011;60945;48.516;-2.768;2023-04-19T08:53:42;26.92;;;22.83;;
72813;SDS011;60945;48.516;-2.768;2023-04-19T08:56:08;27.00;;;21.75;;
72813;SDS011;60945;48.516;-2.768;2023-04-19T08:58:34;25.17;;;21.83;;
72813;SDS011;60945;48.516;-2.768;2023-04-19T09:01:01;25.55;;;20.73;;
72813;SDS011;60945;48.516;-2.768;2023-04-19T09:03:28;22.67;;;20.23;;
72813;SDS011;60945;48.516;-2.768;2023-04-19T09:05:54;23.13;;;20.05;;
72813;SDS011;60945;48.516;-2.768;2023-04-19T09:08:22;23.30;;;20.80;;
72813;SDS011;60945;48.516;-2.768;2023-04-19T09:10:56;24.00;;;21.58;;
72813;SDS011;60945;48.516;-2.768;2023-04-19T09:13:23;23.60;;;21.17;;
72813;SDS011;60945;48.516;-2.768;2023-04-19T09:15:49;25.60;;;22.92;;
72813;SDS011;60945;48.516;-2.768;2023-04-19T09:18:16;24.40;;;21.75;;
72813;SDS011;60945;48.516;-2.768;2023-04-19T09:20:42;28.60;;;22.98;;
72813;SDS011;60945;48.516;-2.768;2023-04-19T09:23:09;23.25;;;20.65;;
72813;SDS011;60945;48.516;-2.768;2023-04-19T09:25:40;27.08;;;23.30;;
72813;SDS011;60945;48.516;-2.768;2023-04-19T09:28:28;25.08;;;22.15;;
72813;SDS011;60945;48.516;-2.768;2023-04-19T09:30:54;31.42;;;23.33;;
72813;SDS011;60945;48.516;-2.768;2023-04-19T09:33:33;24.25;;;21.85;;
72813;SDS011;60945;48.516;-2.768;2023-04-19T09:36:00;26.17;;;22.40;;
72813;SDS011;60945;48.516;-2.768;2023-04-19T09:38:26;23.95;;;21.45;;
72813;SDS011;60945;48.516;-2.768;2023-04-19T09:41:04;24.23;;;21.50;;
72813;SDS011;60945;48.516;-2.768;2023-04-19T09:43:31;23.52;;;21.02;;
72813;SDS011;60945;48.516;-2.768;2023-04-19T09:45:57;23.75;;;21.30;;
72813;SDS011;60945;48.516;-2.768;2023-04-19T09:48:22;24.35;;;21.83;;
72813;SDS011;60945;48.516;-2.768;2023-04-19T09:50:52;23.83;;;21.42;;
72813;SDS011;60945;48.516;-2.768;2023-04-19T09:53:26;24.25;;;21.92;;
72813;SDS011;60945;48.516;-2.768;2023-04-19T09:55:53;24.52;;;21.83;;
72813;SDS011;60945;48.516;-2.768;2023-04-19T09:58:19;24.10;;;21.80;;
72813;SDS011;60945;48.516;-2.768;2023-04-19T10:00:45;24.60;;;22.40;;
72813;SDS011;60945;48.516;-2.768;2023-04-19T10:03:15;24.50;;;22.20;;
72813;SDS011;60945;48.516;-2.768;2023-04-19T10:05:42;24.35;;;22.05;;
72813;SDS011;60945;48.516;-2.768;2023-04-19T10:08:10;24.65;;;22.52;;
72813;SDS011;60945;48.516;-2.768;2023-04-19T10:10:37;23.58;;;21.38;;
72813;SDS011;60945;48.516;-2.768;2023-04-19T10:13:06;24.35;;;22.05;;
72813;SDS011;60945;48.516;-2.768;2023-04-19T10:15:33;23.95;;;21.75;;
72813;SDS011;60945;48.516;-2.768;2023-04-19T10:18:01;24.33;;;22.33;;
72813;SDS011;60945;48.516;-2.768;2023-04-19T10:20:36;22.83;;;20.73;;
72813;SDS011;60945;48.516;-2.768;2023-04-19T10:23:10;22.88;;;20.85;;
72813;SDS011;60945;48.516;-2.768;2023-04-19T10:25:36;24.38;;;22.17;;
72813;SDS011;60945;48.516;-2.768;2023-04-19T10:28:02;22.70;;;20.80;;
72813;SDS011;60945;48.516;-2.768;2023-04-19T10:30:28;23.45;;;21.45;;
72813;SDS011;60945;48.516;-2.768;2023-04-19T10:32:55;22.50;;;20.67;;
72813;SDS011;60945;48.516;-2.768;2023-04-19T10:35:24;22.98;;;20.95;;
72813;SDS011;60945;48.516;-2.768;2023-04-19T10:43:21;24.30;;;21.90;;
72813;SDS011;60945;48.516;-2.768;2023-04-19T10:45:46;23.83;;;21.42;;
72813;SDS011;60945;48.516;-2.768;2023-04-19T10:53:45;24.20;;;21.85;;
72813;SDS011;60945;48.516;-2.768;2023-04-19T10:56:13;23.30;;;21.00;;
72813;SDS011;60945;48.516;-2.768;2023-04-19T11:01:52;23.08;;;20.83;;
72813;SDS011;60945;48.516;-2.768;2023-04-19T11:04:21;23.98;;;21.60;;
72813;SDS011;60945;48.516;-2.768;2023-04-19T11:06:57;22.50;;;20.30;;
72813;SDS011;60945;48.516;-2.768;2023-04-19T11:09:36;23.20;;;20.95;;
72813;SDS011;60945;48.516;-2.768;2023-04-19T11:12:13;23.73;;;21.65;;
72813;SDS011;60945;48.516;-2.768;2023-04-19T11:19:59;21.55;;;19.65;;
72813;SDS011;60945;48.516;-2.768;2023-04-19T11:22:32;22.65;;;20.58;;
72813;SDS011;60945;48.516;-2.768;2023-04-19T11:25:12;23.20;;;21.27;;
72813;SDS011;60945;48.516;-2.768;2023-04-19T11:27:45;22.45;;;20.63;;
72813;SDS011;60945;48.516;-2.768;2023-04-19T11:30:17;24.00;;;21.92;;
72813;SDS011;60945;48.516;-2.768;2023-04-19T11:32:46;23.52;;;21.52;;
72813;SDS011;60945;48.516;-2.768;2023-04-19T11:35:12;22.40;;;20.52;;
72813;SDS011;60945;48.516;-2.768;2023-04-19T11:37:38;21.05;;;19.35;;
72813;SDS011;60945;48.516;-2.768;2023-04-19T11:40:07;24.38;;;22.20;;
72813;SDS011;60945;48.516;-2.768;2023-04-19T11:42:33;23.38;;;21.23;;
72813;SDS011;60945;48.516;-2.768;2023-04-19T11:45:02;23.45;;;21.45;;
72813;SDS011;60945;48.516;-2.768;2023-04-19T11:47:28;23.05;;;21.15;;
72813;SDS011;60945;48.516;-2.768;2023-04-19T11:49:54;21.67;;;19.77;;
72813;SDS011;60945;48.516;-2.768;2023-04-19T11:52:21;23.95;;;21.55;;
72813;SDS011;60945;48.516;-2.768;2023-04-19T11:54:49;22.50;;;20.67;;
72813;SDS011;60945;48.516;-2.768;2023-04-19T11:57:31;22.58;;;20.70;;
72813;SDS011;60945;48.516;-2.768;2023-04-19T12:00:03;23.30;;;21.40;;
72813;SDS011;60945;48.516;-2.768;2023-04-19T12:02:35;20.73;;;19.02;;
72813;SDS011;60945;48.516;-2.768;2023-04-19T12:05:11;22.30;;;20.60;;
72813;SDS011;60945;48.516;-2.768;2023-04-19T12:10:35;22.77;;;20.88;;
72813;SDS011;60945;48.516;-2.768;2023-04-19T12:13:00;22.17;;;20.27;;
72813;SDS011;60945;48.516;-2.768;2023-04-19T12:15:43;23.10;;;21.30;;
72813;SDS011;60945;48.516;-2.768;2023-04-19T12:18:10;21.73;;;20.15;;
72813;SDS011;60945;48.516;-2.768;2023-04-19T12:20:37;22.00;;;20.40;;
72813;SDS011;60945;48.516;-2.768;2023-04-19T12:23:13;21.73;;;20.08;;
72813;SDS011;60945;48.516;-2.768;2023-04-19T12:25:41;21.90;;;20.08;;
72813;SDS011;60945;48.516;-2.768;2023-04-19T12:28:07;20.67;;;19.08;;
72813;SDS011;60945;48.516;-2.768;2023-04-19T12:30:36;21.40;;;19.80;;
72813;SDS011;60945;48.516;-2.768;2023-04-19T12:33:02;21.02;;;19.45;;
72813;SDS011;60945;48.516;-2.768;2023-04-19T12:35:29;22.00;;;20.40;;
72813;SDS011;60945;48.516;-2.768;2023-04-19T12:37:55;20.90;;;19.40;;
72813;SDS011;60945;48.516;-2.768;2023-04-19T12:40:23;21.52;;;20.02;;
72813;SDS011;60945;48.516;-2.768;2023-04-19T12:42:49;21.60;;;19.85;;
72813;SDS011;60945;48.516;-2.768;2023-04-19T12:45:15;21.50;;;19.90;;
72813;SDS011;60945;48.516;-2.768;2023-04-19T12:47:42;22.08;;;20.42;;
72813;SDS011;60945;48.516;-2.768;2023-04-19T12:50:11;19.80;;;18.38;;
72813;SDS011;60945;48.516;-2.768;2023-04-19T12:52:38;20.85;;;19.25;;
72813;SDS011;60945;48.516;-2.768;2023-04-19T12:55:04;20.13;;;18.73;;
72813;SDS011;60945;48.516;-2.768;2023-04-19T12:57:31;19.98;;;18.38;;
72813;SDS011;60945;48.516;-2.768;2023-04-19T12:59:56;19.65;;;18.15;;
72813;SDS011;60945;48.516;-2.768;2023-04-19T13:02:24;20.98;;;19.40;;
72813;SDS011;60945;48.516;-2.768;2023-04-19T13:04:50;20.75;;;19.05;;
72813;SDS011;60945;48.516;-2.768;2023-04-19T13:07:16;20.27;;;18.55;;
72813;SDS011;60945;48.516;-2.768;2023-04-19T13:09:41;20.70;;;19.23;;
72813;SDS011;60945;48.516;-2.768;2023-04-19T13:12:07;20.38;;;18.48;;
72813;SDS011;60945;48.516;-2.768;2023-04-19T13:14:33;20.08;;;18.48;;
72813;SDS011;60945;48.516;-2.768;2023-04-19T13:16:58;18.90;;;17.23;;
72813;SDS011;60945;48.516;-2.768;2023-04-19T13:19:24;20.05;;;18.35;;
72813;SDS011;60945;48.516;-2.768;2023-04-19T13:21:51;19.58;;;18.00;;
72813;SDS011;60945;48.516;-2.768;2023-04-19T13:24:17;20.23;;;18.63;;
72813;SDS011;60945;48.516;-2.768;2023-04-19T13:26:43;21.92;;;20.13;;
72813;SDS011;60945;48.516;-2.768;2023-04-19T13:29:10;19.52;;;17.63;;
72813;SDS011;60945;48.516;-2.768;2023-04-19T13:31:36;20.20;;;18.08;;
72813;SDS011;60945;48.516;-2.768;2023-04-19T13:34:01;21.25;;;19.25;;
72813;SDS011;60945;48.516;-2.768;2023-04-19T13:36:27;21.38;;;19.27;;
72813;SDS011;60945;48.516;-2.768;2023-04-19T13:38:53;21.60;;;19.42;;
72813;SDS011;60945;48.516;-2.768;2023-04-19T13:41:19;19.88;;;17.88;;
72813;SDS011;60945;48.516;-2.768;2023-04-19T13:43:45;19.08;;;17.27;;
72813;SDS011;60945;48.516;-2.768;2023-04-19T13:46:11;21.35;;;19.17;;
72813;SDS011;60945;48.516;-2.768;2023-04-19T13:48:37;19.95;;;17.88;;
72813;SDS011;60945;48.516;-2.768;2023-04-19T13:51:03;20.33;;;18.42;;
72813;SDS011;60945;48.516;-2.768;2023-04-19T13:53:29;19.70;;;17.80;;
72813;SDS011;60945;48.516;-2.768;2023-04-19T13:55:56;19.88;;;17.80;;
72813;SDS011;60945;48.516;-2.768;2023-04-19T13:58:21;20.75;;;19.05;;
72813;SDS011;60945;48.516;-2.768;2023-04-19T14:00:49;20.55;;;18.55;;
72813;SDS011;60945;48.516;-2.768;2023-04-19T14:03:15;19.95;;;18.25;;
72813;SDS011;60945;48.516;-2.768;2023-04-19T14:05:41;19.58;;;17.63;;
72813;SDS011;60945;48.516;-2.768;2023-04-19T14:08:07;21.42;;;19.33;;
72813;SDS011;60945;48.516;-2.768;2023-04-19T14:10:33;21.13;;;19.00;;
72813;SDS011;60945;48.516;-2.768;2023-04-19T14:12:59;19.65;;;17.65;;
72813;SDS011;60945;48.516;-2.768;2023-04-19T14:15:25;24.45;;;18.67;;
72813;SDS011;60945;48.516;-2.768;2023-04-19T14:17:50;19.30;;;17.27;;
72813;SDS011;60945;48.516;-2.768;2023-04-19T14:20:16;19.38;;;17.40;;
72813;SDS011;60945;48.516;-2.768;2023-04-19T14:22:42;19.42;;;17.60;;
72813;SDS011;60945;48.516;-2.768;2023-04-19T14:25:09;19.10;;;17.30;;
72813;SDS011;60945;48.516;-2.768;2023-04-19T14:27:36;17.67;;;16.00;;
72813;SDS011;60945;48.516;-2.768;2023-04-19T14:30:02;20.08;;;18.13;;
72813;SDS011;60945;48.516;-2.768;2023-04-19T14:32:29;19.02;;;17.35;;